Time;durP1;ratioP1;P1;durP2;ratioP2;P2;SDS_P1;SDS_P2;PMS_P1;PMS_P2;Temp;Humidity;BMP_temperature;BMP_pressure;BME280_temperature;BME280_humidity;BME280_pressure;Samples;Min_cycle;Max_cycle;Signal;HPM_P1;HPM_P2
2024/01/10 00:00:19;;;;;;;41.70;16.37;;;;;;;-145.69;58.64;52392.91;5093293;28;20234;-81
2024/01/10 00:02:47;;;;;;;43.80;16.73;;;;;;;-145.69;58.86;52444.38;5073267;28;20564;-81
2024/01/10 00:05:17;;;;;;;44.37;16.50;;;;;;;-145.69;58.25;52424.59;5090796;28;20189;-81
2024/01/10 00:07:43;;;;;;;47.10;17.43;;;;;;;-145.69;58.16;52430.53;5093547;28;20220;-81
2024/01/10 00:10:12;;;;;;;41.30;15.93;;;;;;;-145.69;58.47;52384.97;5093483;28;20226;-82
2024/01/10 00:12:44;;;;;;;38.20;15.53;;;;;;;-145.69;57.78;52400.81;5080209;28;20199;-81
2024/01/10 00:15:17;;;;;;;41.43;15.90;;;;;;;-145.69;57.80;52428.53;5073263;28;20199;-82
2024/01/10 00:17:44;;;;;;;43.07;15.77;;;;;;;-145.69;58.16;52392.91;5073239;28;20199;-81
2024/01/10 00:20:11;;;;;;;47.03;16.00;;;;;;;-145.69;58.80;52412.69;5083618;28;20193;-81
2024/01/10 00:22:39;;;;;;;41.50;15.63;;;;;;;-145.69;57.93;52412.69;5093272;28;20237;-82
2024/01/10 00:25:09;;;;;;;42.43;15.97;;;;;;;-145.69;58.48;52390.91;5093306;28;20241;-82
2024/01/10 00:27:38;;;;;;;39.50;15.13;;;;;;;-145.69;58.00;52418.63;5093301;28;20206;-82
2024/01/10 00:30:07;;;;;;;46.63;16.73;;;;;;;-145.69;57.98;52408.75;5093420;28;20630;-82
2024/01/10 00:32:35;;;;;;;37.80;15.50;;;;;;;-145.69;58.47;52440.44;5092889;28;20644;-83
2024/01/10 00:35:06;;;;;;;37.93;15.23;;;;;;;-145.69;58.11;52369.13;5093068;28;20210;-82
2024/01/10 00:37:42;;;;;;;37.67;14.77;;;;;;;-145.69;58.74;52412.69;5093124;28;20218;-82
2024/01/10 00:40:20;;;;;;;35.70;14.73;;;;;;;-145.69;58.56;52422.59;5092939;28;20777;-82
2024/01/10 00:42:49;;;;;;;40.43;15.77;;;;;;;-145.69;59.03;52414.69;5093397;28;20198;-81
2024/01/10 00:45:21;;;;;;;36.83;14.57;;;;;;;-145.69;58.71;52396.84;5093508;28;20202;-82
2024/01/10 00:47:51;;;;;;;41.17;15.60;;;;;;;-145.69;59.01;52418.63;5093428;28;20298;-82
2024/01/10 00:50:18;;;;;;;41.90;16.87;;;;;;;-145.69;58.54;52404.78;5093027;28;20765;-82
2024/01/10 00:52:45;;;;;;;37.30;15.57;;;;;;;-145.69;58.43;52424.59;5092907;28;20202;-82
2024/01/10 00:55:11;;;;;;;38.17;14.60;;;;;;;-145.69;57.73;52416.66;5093106;28;20285;-81
2024/01/10 00:57:43;;;;;;;34.23;13.93;;;;;;;-145.69;57.73;52410.72;5092785;28;20202;-82
2024/01/10 01:00:20;;;;;;;40.67;14.97;;;;;;;-145.69;57.80;52404.78;5092766;28;20260;-81
2024/01/10 01:02:56;;;;;;;42.57;14.83;;;;;;;-145.69;58.26;52426.56;5092996;28;20194;-82
2024/01/10 01:05:28;;;;;;;40.70;14.60;;;;;;;-145.69;57.29;52404.78;5092404;28;20384;-83
2024/01/10 01:07:55;;;;;;;33.50;14.50;;;;;;;-145.69;57.99;52396.84;5092645;28;20209;-83
2024/01/10 01:10:21;;;;;;;40.90;15.43;;;;;;;-145.69;57.50;52418.63;5092692;28;20271;-82
2024/01/10 01:12:51;;;;;;;40.53;15.10;;;;;;;-145.69;57.60;52420.63;5092797;28;20205;-82
2024/01/10 01:15:26;;;;;;;36.23;14.50;;;;;;;-145.69;58.24;52438.44;5096236;28;20201;-82
2024/01/10 01:17:56;;;;;;;37.97;14.30;;;;;;;-145.69;58.37;52402.78;5096212;28;20197;-83
2024/01/10 01:20:35;;;;;;;37.67;15.13;;;;;;;-145.69;57.96;52420.63;5099761;28;20206;-83
2024/01/10 01:26:06;;;;;;;40.23;14.17;;;;;;;-145.69;56.15;52367.16;5095979;28;20201;-82
2024/01/10 01:28:39;;;;;;;37.67;14.97;;;;;;;-145.69;57.43;52418.63;5096097;28;20198;-82
2024/01/10 01:31:05;;;;;;;32.83;14.77;;;;;;;-145.69;57.13;52432.50;5096059;28;20210;-82
2024/01/10 01:33:47;;;;;;;40.63;15.23;;;;;;;-145.69;57.72;52412.69;5096607;28;20260;-83
2024/01/10 01:36:15;;;;;;;33.53;13.73;;;;;;;-145.69;57.37;52373.09;5094907;28;20205;-82
2024/01/10 01:38:41;;;;;;;44.97;15.80;;;;;;;-145.69;56.95;52386.97;5096250;28;20277;-82
2024/01/10 01:41:11;;;;;;;41.80;15.00;;;;;;;-145.69;57.38;52420.63;5096432;28;20209;-82
2024/01/10 01:43:43;;;;;;;44.90;16.07;;;;;;;-145.69;57.23;52384.97;5096046;28;20202;-83
2024/01/10 01:46:12;;;;;;;41.13;15.30;;;;;;;-145.69;56.29;52386.97;5096123;28;20198;-82
2024/01/10 01:48:47;;;;;;;38.97;15.17;;;;;;;-145.69;56.90;52386.97;5096103;28;20221;-82
2024/01/10 01:51:16;;;;;;;42.10;14.83;;;;;;;-145.69;57.47;52381.00;5095852;28;20229;-81
2024/01/10 01:53:49;;;;;;;35.77;15.57;;;;;;;-145.69;56.29;52404.78;5095787;28;20202;-82
2024/01/10 01:56:20;;;;;;;43.80;16.47;;;;;;;-145.69;55.98;52406.75;5095682;28;20240;-81
2024/01/10 01:58:51;;;;;;;42.83;16.10;;;;;;;-145.69;57.38;52388.94;5095654;28;20294;-83
2024/01/10 02:01:21;;;;;;;44.83;15.90;;;;;;;-145.69;56.76;52392.91;5095675;28;20226;-82
2024/01/10 02:03:48;;;;;;;43.30;15.90;;;;;;;-145.69;56.78;52398.84;5093924;28;20248;-82
2024/01/10 02:06:19;;;;;;;41.17;15.17;;;;;;;-145.69;57.26;52404.78;5087200;28;20209;-82
2024/01/10 02:08:46;;;;;;;37.07;15.27;;;;;;;-145.69;57.10;52381.00;5075363;28;20207;-81
2024/01/10 02:11:15;;;;;;;37.03;14.80;;;;;;;-145.69;57.29;52408.75;5075573;28;20627;-82
2024/01/10 02:13:54;;;;;;;41.90;14.80;;;;;;;-145.69;56.73;52408.75;5093862;28;20194;-82
2024/01/10 02:16:25;;;;;;;35.67;14.83;;;;;;;-145.69;56.85;52396.84;5095538;28;20660;-82
2024/01/10 02:18:52;;;;;;;41.50;15.50;;;;;;;-145.69;57.19;52394.88;5095614;28;20229;-83
2024/01/10 02:21:27;;;;;;;43.23;16.23;;;;;;;-145.69;56.37;52398.84;5095981;28;20683;-82
2024/01/10 02:23:53;;;;;;;34.10;15.00;;;;;;;-145.69;57.19;52384.97;5095389;28;20576;-82
2024/01/10 02:26:22;;;;;;;41.87;15.87;;;;;;;-145.69;56.54;52377.06;5092270;28;20190;-82
2024/01/10 02:28:49;;;;;;;35.93;14.33;;;;;;;-145.69;56.54;52428.53;5095343;28;20194;-82
2024/01/10 02:31:23;;;;;;;45.90;16.73;;;;;;;-145.69;56.66;52388.94;5095068;28;20229;-82
2024/01/10 02:33:55;;;;;;;49.65;20.77;;;;;;;-145.69;57.28;52408.75;5094161;28;20433;-82
2024/01/10 02:36:36;;;;;;;45.43;17.53;;;;;;;-145.69;57.14;52416.66;5095475;28;20202;-82
2024/01/10 02:39:07;;;;;;;37.97;15.03;;;;;;;-145.69;56.50;52371.13;5095209;28;20198;-82
2024/01/10 02:41:42;;;;;;;39.00;15.90;;;;;;;-145.69;57.02;52448.34;5095259;28;20205;-83
2024/01/10 02:44:15;;;;;;;43.90;15.73;;;;;;;-145.69;57.05;52410.72;5074757;28;20213;-82
2024/01/10 02:46:46;;;;;;;44.00;16.00;;;;;;;-145.69;56.70;52400.81;5074842;28;20205;-82
2024/01/10 02:49:18;;;;;;;48.63;17.20;;;;;;;-145.69;57.30;52408.75;5074664;28;20661;-82
2024/01/10 02:51:47;;;;;;;41.90;16.13;;;;;;;-145.69;57.07;52398.84;5094778;28;20233;-82
2024/01/10 02:54:15;;;;;;;39.70;15.60;;;;;;;-145.69;57.57;52446.38;5094967;28;20210;-81
2024/01/10 02:57:02;;;;;;;32.10;13.13;;;;;;;-145.69;57.05;52426.56;5094936;28;20556;-82
2024/01/10 02:59:33;;;;;;;41.53;15.47;;;;;;;-145.69;56.92;52404.78;5094441;28;20230;-82
2024/01/10 03:02:00;;;;;;;35.07;14.10;;;;;;;-145.69;57.58;52416.66;5094591;28;20208;-82
2024/01/10 03:04:26;;;;;;;39.43;15.60;;;;;;;-145.69;57.73;52400.81;5094355;28;20198;-82
2024/01/10 03:07:03;;;;;;;36.20;15.17;;;;;;;-145.69;57.12;52440.44;5094623;28;20198;-82
2024/01/10 03:09:32;;;;;;;43.83;16.37;;;;;;;-145.69;57.32;52420.63;5094723;28;20202;-82
2024/01/10 03:12:18;;;;;;;40.00;15.87;;;;;;;-145.69;56.57;52369.13;5094145;28;20230;-81
2024/01/10 03:14:50;;;;;;;43.30;17.23;;;;;;;-145.69;57.22;52400.81;5094634;28;20208;-82
2024/01/10 03:17:17;;;;;;;40.63;15.73;;;;;;;-145.69;56.70;52381.00;5094510;28;20202;-82
2024/01/10 03:19:43;;;;;;;39.93;16.10;;;;;;;-145.69;56.64;52388.94;5102496;28;20205;-82
2024/01/10 03:22:12;;;;;;;40.00;15.40;;;;;;;-145.69;55.74;52386.97;5114856;27;20674;-82
2024/01/10 03:24:41;;;;;;;40.23;15.90;;;;;;;-145.69;56.92;52392.91;5114942;28;20545;-82
2024/01/10 03:27:12;;;;;;;42.47;16.47;;;;;;;-145.69;56.62;52420.63;5098153;28;20280;-82
2024/01/10 03:29:39;;;;;;;38.93;16.00;;;;;;;-145.69;56.79;52420.63;5094351;28;20198;-83
2024/01/10 03:32:06;;;;;;;45.87;18.00;;;;;;;-145.69;57.03;52420.63;5093970;28;20303;-82
2024/01/10 03:34:35;;;;;;;43.83;16.90;;;;;;;-145.69;56.83;52416.66;5093924;28;20672;-83
2024/01/10 03:37:04;;;;;;;37.37;16.20;;;;;;;-145.69;57.20;52408.75;5093704;28;20198;-82
2024/01/10 03:39:31;;;;;;;38.60;16.60;;;;;;;-145.69;56.63;52420.63;5093922;28;20247;-83
2024/01/10 03:41:58;;;;;;;42.23;16.20;;;;;;;-145.69;57.51;52420.63;5093892;28;20237;-82
2024/01/10 03:44:29;;;;;;;42.77;16.00;;;;;;;-145.69;57.68;52396.84;5093868;28;20225;-81
2024/01/10 03:46:59;;;;;;;39.87;15.03;;;;;;;-145.69;58.05;52414.69;5093962;28;20201;-82
2024/01/10 03:49:30;;;;;;;32.37;14.03;;;;;;;-145.69;57.59;52406.75;5099161;28;20201;-82
2024/01/10 03:51:59;;;;;;;36.43;14.33;;;;;;;-145.69;58.05;52388.94;5114121;28;20237;-83
2024/01/10 03:54:25;;;;;;;40.10;16.43;;;;;;;-145.69;57.80;52410.72;5114408;28;20201;-82
2024/01/10 03:56:54;;;;;;;46.37;16.93;;;;;;;-145.69;57.83;52412.69;5113985;28;20206;-82
2024/01/10 03:59:21;;;;;;;42.27;15.17;;;;;;;-145.69;57.15;52388.94;5113677;28;20722;-82
2024/01/10 04:01:51;;;;;;;36.23;15.63;;;;;;;-145.69;57.23;52414.69;5113930;28;20198;-83
2024/01/10 04:04:18;;;;;;;37.77;15.17;;;;;;;-145.69;57.58;52398.84;5100241;28;20199;-81
2024/01/10 04:06:47;;;;;;;42.33;15.83;;;;;;;-145.69;57.16;52404.78;5073467;28;20209;-82
2024/01/10 04:09:14;;;;;;;37.53;15.13;;;;;;;-145.69;57.15;52392.91;5073604;28;20606;-82
2024/01/10 04:11:41;;;;;;;41.23;15.90;;;;;;;-145.69;57.01;52408.75;5093586;28;20229;-82
2024/01/10 04:14:07;;;;;;;35.83;14.57;;;;;;;-145.69;57.03;52396.84;5093304;28;20255;-81
2024/01/10 04:16:42;;;;;;;35.53;15.30;;;;;;;-145.69;56.29;52416.66;5093393;28;20283;-84
2024/01/10 04:19:13;;;;;;;36.67;15.43;;;;;;;-145.69;56.52;52404.78;5093120;28;20675;-82
2024/01/10 04:21:39;;;;;;;42.53;16.97;;;;;;;-145.69;56.33;52410.72;5093393;28;20213;-82
2024/01/10 04:24:07;;;;;;;40.67;16.40;;;;;;;-145.69;56.67;52410.72;5093133;28;20595;-81
2024/01/10 04:26:33;;;;;;;46.80;17.10;;;;;;;-145.69;56.63;52404.78;5093471;28;20201;-82
2024/01/10 04:29:00;;;;;;;42.57;18.10;;;;;;;-145.69;56.09;52404.78;5093470;28;20194;-82
2024/01/10 04:31:26;;;;;;;39.27;15.27;;;;;;;-145.69;56.60;52379.03;5093241;28;20225;-82
2024/01/10 04:33:53;;;;;;;41.20;16.97;;;;;;;-145.69;56.00;52410.72;5093499;28;20197;-82
2024/01/10 04:36:23;;;;;;;42.17;16.23;;;;;;;-145.69;56.19;52410.72;5092498;28;20190;-82
2024/01/10 04:38:49;;;;;;;45.20;17.00;;;;;;;-145.69;56.56;52422.59;5093372;28;20657;-82
2024/01/10 04:41:16;;;;;;;44.20;17.53;;;;;;;-145.69;56.55;52400.81;5093082;28;20201;-82
2024/01/10 04:43:42;;;;;;;48.17;17.33;;;;;;;-145.69;56.80;52412.69;5093061;28;20272;-82
2024/01/10 04:46:10;;;;;;;39.23;16.07;;;;;;;-145.69;56.35;52440.44;5092970;28;20206;-81
2024/01/10 04:48:36;;;;;;;50.07;17.87;;;;;;;-145.69;56.35;52418.63;5094581;28;20197;-82
2024/01/10 04:51:03;;;;;;;44.67;16.17;;;;;;;-145.69;56.74;52410.72;5104498;28;20217;-82
2024/01/10 04:53:31;;;;;;;45.00;17.60;;;;;;;-145.69;56.88;52388.94;5097042;28;20227;-81
2024/01/10 04:55:59;;;;;;;38.03;15.10;;;;;;;-145.69;57.16;52416.66;5097098;28;20206;-82
2024/01/10 04:58:28;;;;;;;47.87;18.10;;;;;;;-145.69;57.55;52402.78;5096881;28;20320;-82
2024/01/10 05:00:55;;;;;;;38.60;15.33;;;;;;;-145.69;57.04;52384.97;5097226;28;20209;-82
2024/01/10 05:03:21;;;;;;;46.93;16.10;;;;;;;-145.69;56.99;52452.31;5096797;28;20201;-82
2024/01/10 05:05:51;;;;;;;41.80;17.00;;;;;;;-145.69;56.96;52396.84;5096149;28;20649;-82
2024/01/10 05:08:20;;;;;;;51.00;17.50;;;;;;;-145.69;56.81;52426.56;5096909;28;20244;-82
2024/01/10 05:10:50;;;;;;;37.73;14.50;;;;;;;-145.69;57.31;52408.75;5096650;28;20201;-82
2024/01/10 05:13:17;;;;;;;47.27;17.57;;;;;;;-145.69;57.60;52410.72;5096652;28;20226;-82
2024/01/10 05:15:43;;;;;;;51.00;17.00;;;;;;;-145.69;57.85;52386.97;5096654;28;20652;-83
2024/01/10 05:18:10;;;;;;;43.80;15.83;;;;;;;-145.69;58.17;52424.59;5096635;28;20206;-83
2024/01/10 05:20:37;;;;;;;43.07;17.50;;;;;;;-145.69;57.93;52418.63;5096564;28;20202;-82
2024/01/10 05:23:05;;;;;;;40.67;16.23;;;;;;;-145.69;58.21;52412.69;5096494;28;20225;-82
2024/01/10 05:25:32;;;;;;;47.60;18.07;;;;;;;-145.69;58.81;52428.53;5096630;28;20275;-83
2024/01/10 05:28:12;;;;;;;43.67;17.37;;;;;;;-145.69;58.35;52398.84;5096941;28;20224;-80
2024/01/10 05:30:39;;;;;;;49.17;17.77;;;;;;;-145.69;58.21;52414.69;5096582;28;20289;-82
2024/01/10 05:33:05;;;;;;;48.47;18.13;;;;;;;-145.69;58.29;52388.94;5096515;28;20230;-82
2024/01/10 05:35:35;;;;;;;47.97;18.83;;;;;;;-145.69;58.20;52381.00;5096507;28;20198;-82
2024/01/10 05:38:02;;;;;;;41.47;16.87;;;;;;;-145.69;57.57;52400.81;5096462;28;20202;-82
2024/01/10 05:40:29;;;;;;;42.33;16.90;;;;;;;-145.69;57.91;52410.72;5096460;28;20206;-81
2024/01/10 05:42:56;;;;;;;50.27;17.23;;;;;;;-145.69;58.00;52398.84;5096456;28;20289;-82
2024/01/10 05:45:24;;;;;;;49.83;17.10;;;;;;;-145.69;58.67;52416.66;5095804;28;20212;-82
2024/01/10 05:47:50;;;;;;;43.50;16.53;;;;;;;-145.69;57.85;52428.53;5096175;28;20198;-82
2024/01/10 05:50:17;;;;;;;42.93;16.70;;;;;;;-145.69;58.47;52379.03;5096180;28;20248;-81
2024/01/10 05:52:44;;;;;;;40.57;15.60;;;;;;;-145.69;58.31;52383.00;5095607;28;20738;-81
2024/01/10 05:55:11;;;;;;;47.03;19.17;;;;;;;-145.69;58.88;52416.66;5091583;28;20203;-82
2024/01/10 05:57:37;;;;;;;49.53;17.20;;;;;;;-145.69;58.72;52388.94;5093229;28;20206;-81
2024/01/10 06:00:09;;;;;;;44.33;16.03;;;;;;;-145.69;59.06;52406.75;5094573;28;20226;-82
2024/01/10 06:02:38;;;;;;;45.17;18.07;;;;;;;-145.69;59.26;52404.78;5095056;28;20210;-81
2024/01/10 06:05:06;;;;;;;44.53;17.67;;;;;;;-145.69;58.70;52434.47;5094446;28;20194;-82
2024/01/10 06:07:33;;;;;;;53.50;18.30;;;;;;;-145.69;58.53;52434.47;5094948;28;20372;-81
2024/01/10 06:09:59;;;;;;;48.97;17.70;;;;;;;-145.69;58.54;52394.88;5094776;28;20198;-81
2024/01/10 06:12:26;;;;;;;41.43;17.00;;;;;;;-145.69;59.00;52428.53;5094293;28;20252;-81
2024/01/10 06:14:55;;;;;;;42.70;16.93;;;;;;;-145.69;58.83;52442.41;5095692;28;20209;-81
2024/01/10 06:17:21;;;;;;;45.07;16.57;;;;;;;-145.69;58.69;52396.84;5095596;28;20206;-81
2024/01/10 06:19:50;;;;;;;45.57;16.23;;;;;;;-145.69;58.58;52388.94;5095562;28;20292;-81
2024/01/10 06:22:24;;;;;;;48.63;16.43;;;;;;;-145.69;58.36;52384.97;5095189;28;20281;-81
2024/01/10 06:24:51;;;;;;;41.00;16.77;;;;;;;-145.69;58.63;52408.75;5095608;28;20197;-81
2024/01/10 06:27:18;;;;;;;43.10;16.77;;;;;;;-145.69;58.40;52408.75;5095458;28;20203;-81
2024/01/10 06:29:44;;;;;;;40.30;15.93;;;;;;;-145.69;58.14;52422.59;5095490;28;20254;-81
2024/01/10 06:32:11;;;;;;;45.67;17.33;;;;;;;-145.69;58.33;52386.97;5095173;28;20237;-82
2024/01/10 06:34:38;;;;;;;50.27;18.83;;;;;;;-145.69;58.76;52392.91;5094838;28;20559;-81
2024/01/10 06:37:07;;;;;;;47.93;18.93;;;;;;;-145.69;58.80;52388.94;5094930;28;20556;-81
2024/01/10 06:39:33;;;;;;;47.43;18.13;;;;;;;-145.69;58.36;52416.66;5095092;28;20230;-81
2024/01/10 06:42:00;;;;;;;47.97;18.67;;;;;;;-145.69;58.18;52400.81;5095181;28;20202;-81
2024/01/10 06:44:27;;;;;;;40.73;16.23;;;;;;;-145.69;58.73;52408.75;5095081;28;20206;-81
2024/01/10 06:46:57;;;;;;;42.73;16.17;;;;;;;-145.69;58.08;52400.81;5095232;28;20557;-81
2024/01/10 06:49:23;;;;;;;42.47;17.23;;;;;;;-145.69;57.54;52418.63;5094890;28;20660;-81
2024/01/10 06:51:50;;;;;;;51.83;18.33;;;;;;;-145.69;57.65;52398.84;5094659;28;20201;-81
2024/01/10 06:54:19;;;;;;;49.23;19.07;;;;;;;-145.69;58.18;52418.63;5094881;28;20209;-81
2024/01/10 06:56:48;;;;;;;51.43;18.20;;;;;;;-145.69;58.33;52398.84;5094888;28;20216;-81
2024/01/10 06:59:17;;;;;;;49.30;17.47;;;;;;;-145.69;58.34;52404.78;5094782;28;20233;-81
2024/01/10 07:01:46;;;;;;;49.33;17.33;;;;;;;-145.69;58.29;52424.59;5094827;28;20200;-81
2024/01/10 07:04:16;;;;;;;52.67;17.97;;;;;;;-145.69;58.08;52420.63;5094868;28;20251;-81
2024/01/10 07:06:43;;;;;;;50.03;17.97;;;;;;;-145.69;58.71;52422.59;5094346;28;20267;-81
2024/01/10 07:09:12;;;;;;;46.40;16.97;;;;;;;-145.69;58.88;52388.94;5094294;28;20197;-81
2024/01/10 07:11:40;;;;;;;39.57;16.20;;;;;;;-145.69;59.03;52430.53;5093828;28;20202;-81
2024/01/10 07:14:06;;;;;;;45.37;18.07;;;;;;;-145.69;58.50;52384.97;5094439;28;20308;-81
2024/01/10 07:16:38;;;;;;;43.03;16.73;;;;;;;-145.69;59.43;52442.41;5094343;28;20202;-81
2024/01/10 07:19:07;;;;;;;40.50;15.77;;;;;;;-145.69;58.81;52432.50;5094481;28;20269;-81
2024/01/10 07:21:35;;;;;;;40.63;15.40;;;;;;;-145.69;58.86;52414.69;5098194;28;20197;-81
2024/01/10 07:24:01;;;;;;;51.37;17.60;;;;;;;-145.69;58.69;52414.69;5114678;28;20667;-81
2024/01/10 07:26:28;;;;;;;45.70;17.50;;;;;;;-145.69;58.36;52400.81;5114451;28;20201;-81
2024/01/10 07:28:56;;;;;;;41.57;15.63;;;;;;;-145.69;58.48;52420.63;5114619;28;20209;-81
2024/01/10 07:31:24;;;;;;;44.63;17.57;;;;;;;-145.69;58.10;52361.22;5114877;27;20293;-81
2024/01/10 07:33:50;;;;;;;46.90;17.70;;;;;;;-145.69;58.66;52408.75;5114489;28;20221;-81
2024/01/10 07:36:22;;;;;;;52.07;19.17;;;;;;;-145.69;57.93;52408.75;5114441;28;20559;-81
2024/01/10 07:38:52;;;;;;;39.17;16.73;;;;;;;-145.69;58.34;52414.69;5097793;28;20566;-81
2024/01/10 07:41:21;;;;;;;44.57;17.27;;;;;;;-145.69;58.30;52400.81;5094069;28;20217;-81
2024/01/10 07:43:49;;;;;;;47.23;18.57;;;;;;;-145.69;58.52;52412.69;5094151;28;20283;-81
2024/01/10 07:46:28;;;;;;;54.17;18.70;;;;;;;-145.69;57.37;52381.00;5092123;28;20652;-81
2024/01/10 07:49:01;;;;;;;42.80;17.07;;;;;;;-145.69;57.87;52400.81;5073753;28;20629;-81
2024/01/10 07:51:30;;;;;;;48.47;17.93;;;;;;;-145.69;57.24;52402.78;5081480;28;20201;-81
2024/01/10 07:53:59;;;;;;;49.33;20.70;;;;;;;-145.69;56.74;52386.97;5093640;28;20731;-81
2024/01/10 07:56:35;;;;;;;53.00;19.33;;;;;;;-145.69;56.27;52390.91;5093477;28;20198;-82
2024/01/10 07:59:06;;;;;;;50.20;19.73;;;;;;;-145.69;56.88;52388.94;5093834;28;20230;-81
2024/01/10 08:01:36;;;;;;;51.93;19.50;;;;;;;-145.69;57.07;52424.59;5093437;28;20198;-81
2024/01/10 08:04:03;;;;;;;45.53;18.10;;;;;;;-145.69;57.04;52430.53;5093606;28;20198;-82
2024/01/10 08:06:30;;;;;;;51.60;18.33;;;;;;;-145.69;56.93;52420.63;5093433;28;20198;-81
2024/01/10 08:08:56;;;;;;;43.30;17.03;;;;;;;-145.69;56.75;52400.81;5093538;28;20213;-81
2024/01/10 08:11:25;;;;;;;41.00;16.13;;;;;;;-145.69;56.22;52388.94;5093580;28;20637;-81
2024/01/10 08:13:54;;;;;;;40.73;15.73;;;;;;;-145.69;56.32;52414.69;5093240;28;20225;-81
2024/01/10 08:16:21;;;;;;;44.20;17.10;;;;;;;-145.69;55.79;52386.97;5093457;28;20297;-82
2024/01/10 08:18:52;;;;;;;48.73;16.50;;;;;;;-145.69;55.54;52386.97;5093545;28;20206;-82
2024/01/10 08:21:19;;;;;;;35.37;15.33;;;;;;;-145.69;55.84;52355.28;5093262;28;20225;-81
2024/01/10 08:23:49;;;;;;;49.63;17.23;;;;;;;-145.69;56.40;52424.59;5093438;28;20217;-81
2024/01/10 08:26:18;;;;;;;40.03;16.47;;;;;;;-145.69;55.48;52369.13;5093263;28;20281;-82
2024/01/10 08:28:45;;;;;;;37.37;16.40;;;;;;;-145.69;55.78;52373.09;5093194;28;20197;-81
2024/01/10 08:31:12;;;;;;;47.03;17.10;;;;;;;-145.69;55.78;52394.88;5092703;28;20256;-81
2024/01/10 08:33:45;;;;;;;44.80;17.30;;;;;;;-145.69;55.25;52377.06;5093310;28;20342;-81
2024/01/10 08:36:16;;;;;;;43.57;16.17;;;;;;;-145.69;55.75;52388.94;5092722;28;20665;-81
2024/01/10 08:38:42;;;;;;;42.87;16.77;;;;;;;-145.69;55.88;52398.84;5093064;28;20198;-81
2024/01/10 08:41:11;;;;;;;41.40;17.10;;;;;;;-145.69;55.54;52418.63;5093125;28;20293;-81
2024/01/10 08:43:38;;;;;;;41.47;17.00;;;;;;;-145.69;55.84;52377.06;5092906;28;20271;-81
2024/01/10 08:46:05;;;;;;;44.73;18.50;;;;;;;-145.69;55.67;52388.94;5093048;28;20545;-82
2024/01/10 08:48:31;;;;;;;48.00;18.20;;;;;;;-145.69;56.22;52394.88;5092814;28;20202;-82
2024/01/10 08:50:57;;;;;;;41.37;17.33;;;;;;;-145.69;56.29;52414.69;5093060;28;20191;-82
2024/01/10 08:53:25;;;;;;;44.80;17.23;;;;;;;-145.69;56.09;52402.78;5093175;28;20584;-83
2024/01/10 08:55:52;;;;;;;37.43;15.13;;;;;;;-145.69;56.43;52422.59;5093332;28;20202;-82
2024/01/10 08:58:18;;;;;;;38.10;16.53;;;;;;;-145.69;55.60;52402.78;5092530;28;20240;-82
2024/01/10 09:00:50;;;;;;;42.03;17.00;;;;;;;-145.69;55.90;52410.72;5092439;28;20202;-82
2024/01/10 09:03:17;;;;;;;36.10;16.37;;;;;;;-145.69;55.42;52426.56;5093179;28;20236;-81
2024/01/10 09:05:43;;;;;;;47.00;17.43;;;;;;;-145.69;55.99;52379.03;5092988;28;20201;-82
2024/01/10 09:08:10;;;;;;;47.30;16.17;;;;;;;-145.69;56.46;52430.53;5092947;28;20198;-82
2024/01/10 09:10:38;;;;;;;44.80;17.23;;;;;;;-145.69;55.78;52416.66;5092678;28;20205;-82
2024/01/10 09:13:04;;;;;;;48.37;17.27;;;;;;;-145.69;55.68;52426.56;5092574;28;20229;-82
2024/01/10 09:15:31;;;;;;;43.73;17.17;;;;;;;-145.69;55.52;52402.78;5092551;28;20251;-82
2024/01/10 09:18:00;;;;;;;44.97;17.70;;;;;;;-145.69;55.94;52396.84;5092877;28;20206;-82
2024/01/10 09:20:27;;;;;;;41.60;15.70;;;;;;;-145.69;55.72;52390.91;5092674;28;20561;-81
2024/01/10 09:22:54;;;;;;;40.20;16.20;;;;;;;-145.69;55.63;52418.63;5092561;28;20198;-82
2024/01/10 09:25:21;;;;;;;42.73;16.43;;;;;;;-145.69;55.97;52383.00;5092571;28;20198;-82
2024/01/10 09:27:49;;;;;;;38.63;15.97;;;;;;;-145.69;55.62;52381.00;5092619;28;20302;-82
2024/01/10 09:30:18;;;;;;;43.60;16.93;;;;;;;-145.69;56.06;52402.78;5092681;28;20206;-82
2024/01/10 09:32:45;;;;;;;36.53;15.77;;;;;;;-145.69;56.02;52400.81;5092938;28;20210;-81
2024/01/10 09:35:14;;;;;;;47.40;17.23;;;;;;;-145.69;55.33;52410.72;5094791;28;20206;-81
2024/01/10 09:37:41;;;;;;;44.17;18.17;;;;;;;-145.69;54.51;52381.00;5096539;28;20198;-83
2024/01/10 09:40:09;;;;;;;41.30;15.83;;;;;;;-145.69;55.05;52343.38;5096278;28;20212;-83
2024/01/10 09:42:37;;;;;;;45.03;16.87;;;;;;;-145.69;55.35;52377.06;5094256;28;20202;-82
2024/01/10 09:45:09;;;;;;;38.00;15.73;;;;;;;-145.69;54.66;52375.06;5085968;28;20201;-85
2024/01/10 09:47:39;;;;;;;39.00;15.77;;;;;;;-145.69;54.38;52361.22;5096308;28;20225;-84
2024/01/10 09:50:07;;;;;;;50.63;16.57;;;;;;;-145.69;54.96;52420.63;5096237;28;20202;-81
2024/01/10 09:52:40;;;;;;;46.30;16.90;;;;;;;-145.69;54.65;52412.69;5095973;28;20201;-83
2024/01/10 09:55:09;;;;;;;47.17;17.30;;;;;;;-145.69;55.26;52365.16;5096031;28;20593;-82
2024/01/10 09:57:36;;;;;;;43.13;16.33;;;;;;;-145.69;55.59;52365.16;5095187;28;20228;-83
2024/01/10 10:00:04;;;;;;;53.97;19.93;;;;;;;-145.69;55.14;52392.91;5095737;28;20267;-84
2024/01/10 10:02:33;;;;;;;47.17;19.87;;;;;;;-145.69;55.13;52400.81;5075855;28;20285;-83
2024/01/10 10:05:04;;;;;;;47.67;18.60;;;;;;;-145.69;55.08;52365.16;5075913;28;20649;-82
2024/01/10 10:07:31;;;;;;;44.83;17.60;;;;;;;-145.69;54.92;52416.66;5076019;28;20231;-82
2024/01/10 10:09:58;;;;;;;51.17;18.10;;;;;;;-145.69;55.14;52406.75;5075917;28;20202;-82
2024/01/10 10:12:42;;;;;;;43.03;16.53;;;;;;;-145.69;54.66;52353.28;5076336;28;20246;-82
2024/01/10 10:15:12;;;;;;;42.07;16.20;;;;;;;-145.69;55.07;52381.00;5094026;28;20194;-82
2024/01/10 10:17:46;;;;;;;36.10;15.37;;;;;;;-145.69;55.07;52381.00;5095713;28;20564;-81
2024/01/10 10:20:14;;;;;;;46.80;17.37;;;;;;;-145.69;55.16;52345.38;5095796;28;20315;-82
2024/01/10 10:22:42;;;;;;;41.93;15.87;;;;;;;-145.69;55.21;52377.06;5095692;28;20256;-81
2024/01/10 10:25:09;;;;;;;45.43;17.73;;;;;;;-145.69;55.19;52412.69;5095693;28;20657;-80
2024/01/10 10:27:37;;;;;;;43.30;16.27;;;;;;;-145.69;55.05;52377.06;5095463;28;20205;-82
2024/01/10 10:30:09;;;;;;;46.17;16.53;;;;;;;-145.69;55.31;52383.00;5095307;28;20603;-81
2024/01/10 10:32:35;;;;;;;45.40;17.40;;;;;;;-145.69;55.77;52373.09;5095475;28;20236;-81
2024/01/10 10:35:05;;;;;;;43.17;16.97;;;;;;;-145.69;55.67;52412.69;5095286;28;20228;-81
2024/01/10 10:37:31;;;;;;;38.60;15.17;;;;;;;-145.69;55.68;52390.91;5094999;28;20194;-81
2024/01/10 10:39:57;;;;;;;47.57;16.30;;;;;;;-145.69;55.45;52379.03;5095138;28;20248;-80
2024/01/10 10:42:27;;;;;;;39.97;15.47;;;;;;;-145.69;55.41;52373.09;5095144;28;20714;-81
2024/01/10 10:44:58;;;;;;;39.23;15.80;;;;;;;-145.69;55.60;52345.38;5094822;28;20213;-81
2024/01/10 10:47:31;;;;;;;42.77;16.47;;;;;;;-145.69;55.59;52396.84;5094031;28;20231;-81
2024/01/10 10:50:00;;;;;;;50.20;18.47;;;;;;;-145.69;55.84;52369.13;5095358;28;20645;-81
2024/01/10 10:52:28;;;;;;;39.17;17.33;;;;;;;-145.69;56.14;52343.38;5094922;28;20205;-81
2024/01/10 10:54:57;;;;;;;38.73;15.60;;;;;;;-145.69;56.04;52394.88;5094535;28;20226;-81
2024/01/10 10:57:26;;;;;;;36.20;14.50;;;;;;;-145.69;55.88;52400.81;5091557;28;20210;-81
2024/01/10 10:59:54;;;;;;;45.23;15.50;;;;;;;-145.69;55.90;52404.78;5082143;28;20242;-81
2024/01/10 11:02:23;;;;;;;39.73;14.90;;;;;;;-145.69;55.87;52392.91;5082051;28;20206;-81
2024/01/10 11:04:50;;;;;;;40.20;15.80;;;;;;;-145.69;55.71;52381.00;5094479;28;20224;-80
2024/01/10 11:07:16;;;;;;;42.60;16.57;;;;;;;-145.69;55.57;52377.06;5094746;28;20237;-80
2024/01/10 11:09:46;;;;;;;40.27;15.40;;;;;;;-145.69;55.77;52373.09;5094597;28;20202;-81
2024/01/10 11:12:30;;;;;;;42.53;16.20;;;;;;;-145.69;55.61;52361.22;5094560;28;20198;-80